Time;durP1;ratioP1;P1;durP2;ratioP2;P2;SDS_P1;SDS_P2;PMS_P1;PMS_P2;Temp;Humidity;BMP_temperature;BMP_pressure;BME280_temperature;BME280_humidity;BME280_pressure;Samples;Min_cycle;Max_cycle;Signal;HPM_P1;HPM_P2
2022/09/23 00:00:04;;;;;;;14.13;5.65;;;;;;;17.05;50.02;101214.13;6309901;22;20019;-63
2022/09/23 00:02:55;;;;;;;12.73;5.55;;;;;;;17.10;49.79;101209.16;6306256;22;20470;-66
2022/09/23 00:05:42;;;;;;;15.77;6.30;;;;;;;17.10;49.99;101213.91;6265820;22;20027;-65
2022/09/23 00:08:19;;;;;;;14.55;6.63;;;;;;;17.11;50.08;101207.19;6285779;22;20026;-64
2022/09/23 00:11:17;;;;;;;11.05;6.10;;;;;;;17.12;49.86;101209.63;6256165;22;20019;-64
2022/09/23 00:13:47;;;;;;;13.15;5.75;;;;;;;17.16;49.87;101213.34;6282413;22;20011;-63
2022/09/23 00:16:18;;;;;;;12.13;6.10;;;;;;;17.14;50.07;101206.50;6307798;22;20466;-64
2022/09/23 00:18:45;;;;;;;13.60;5.75;;;;;;;17.06;49.96;101193.50;6281541;22;20022;-64
2022/09/23 00:21:13;;;;;;;9.55;5.53;;;;;;;17.10;50.35;101202.78;6310193;22;20027;-64
2022/09/23 00:23:41;;;;;;;13.98;5.60;;;;;;;17.20;49.96;101191.19;6257728;22;20027;-63
2022/09/23 00:26:11;;;;;;;15.10;5.30;;;;;;;17.16;49.73;101193.84;6281990;22;20346;-63
2022/09/23 00:28:39;;;;;;;12.82;5.57;;;;;;;17.17;49.96;101189.94;6310403;22;20021;-72
2022/09/23 00:31:10;;;;;;;11.50;5.53;;;;;;;17.14;49.88;101190.59;6256454;22;20019;-72
2022/09/23 00:33:39;;;;;;;9.15;4.90;;;;;;;17.17;49.74;101189.09;6310230;22;20133;-72
2022/09/23 00:36:09;;;;;;;10.95;5.50;;;;;;;17.14;49.61;101187.03;6282561;22;20019;-72
2022/09/23 00:38:37;;;;;;;15.55;5.88;;;;;;;17.10;49.84;101186.91;6281536;22;20020;-72
2022/09/23 00:41:05;;;;;;;13.38;5.13;;;;;;;17.13;49.85;101177.84;6255858;22;20047;-64
2022/09/23 00:43:41;;;;;;;11.73;4.38;;;;;;;17.13;49.91;101177.84;6257020;22;20019;-73
2022/09/23 00:46:11;;;;;;;13.18;4.50;;;;;;;17.16;49.73;101181.91;6309505;22;20019;-71
2022/09/23 00:48:40;;;;;;;11.45;4.95;;;;;;;17.15;49.84;101180.28;6309686;22;20041;-73
2022/09/23 00:51:09;;;;;;;12.98;5.63;;;;;;;17.10;49.84;101175.78;6282655;22;20015;-72
2022/09/23 00:53:37;;;;;;;12.13;4.65;;;;;;;17.12;50.17;101176.22;6256523;22;20467;-72
2022/09/23 00:56:09;;;;;;;8.40;4.28;;;;;;;17.05;50.23;101178.75;6256674;22;20118;-72
2022/09/23 00:58:38;;;;;;;13.77;4.50;;;;;;;17.05;50.25;101180.75;6282941;22;20018;-72
2022/09/23 01:01:06;;;;;;;10.60;4.90;;;;;;;17.03;50.32;101172.75;6281963;22;20019;-72
2022/09/23 01:03:34;;;;;;;9.27;4.80;;;;;;;17.00;50.40;101173.41;6310079;22;20012;-73
2022/09/23 01:06:01;;;;;;;10.20;4.88;;;;;;;16.95;50.80;101170.03;6282009;22;20019;-72
2022/09/23 01:08:28;;;;;;;12.02;5.28;;;;;;;16.92;50.98;101170.72;6281699;22;20019;-71
2022/09/23 01:10:59;;;;;;;9.68;4.75;;;;;;;16.94;50.84;101169.25;6281862;22;20018;-71
2022/09/23 01:14:02;;;;;;;9.75;4.72;;;;;;;16.89;51.07;101175.03;6309484;22;20015;-71
2022/09/23 01:16:32;;;;;;;9.40;5.13;;;;;;;16.82;51.31;101177.56;6308766;22;20019;-72
2022/09/23 01:19:07;;;;;;;9.07;4.78;;;;;;;16.82;51.34;101166.44;6256612;22;20016;-72
2022/09/23 01:21:50;;;;;;;10.20;4.82;;;;;;;16.91;51.13;101167.16;6255153;22;20477;-71
2022/09/23 01:24:42;;;;;;;10.50;5.25;;;;;;;16.84;51.50;101164.13;6280475;22;20026;-70
2022/09/23 01:27:28;;;;;;;9.60;5.00;;;;;;;16.82;51.45;101161.66;6281714;22;20019;-70
2022/09/23 01:30:05;;;;;;;9.77;4.40;;;;;;;16.86;51.48;101161.78;6280946;22;20023;-70
2022/09/23 01:32:51;;;;;;;9.80;4.60;;;;;;;16.89;51.53;101145.22;6308547;22;20477;-64
2022/09/23 01:35:24;;;;;;;11.02;4.72;;;;;;;16.90;50.98;101140.47;6282410;22;20019;-71
2022/09/23 01:37:54;;;;;;;8.15;4.80;;;;;;;16.83;51.90;101138.25;6309626;22;20162;-70
2022/09/23 01:40:31;;;;;;;9.60;4.93;;;;;;;16.84;51.61;101145.44;6309366;22;20023;-71
2022/09/23 01:43:27;;;;;;;13.05;4.53;;;;;;;16.84;51.49;101144.66;6309152;22;20007;-72
2022/09/23 01:45:58;;;;;;;9.75;4.60;;;;;;;16.78;51.72;101152.41;6268336;22;20026;-71
2022/09/23 01:48:30;;;;;;;11.30;5.38;;;;;;;16.81;51.85;101143.34;6309764;22;20025;-71
2022/09/23 01:51:10;;;;;;;14.52;5.38;;;;;;;16.81;51.79;101136.97;6309576;22;20050;-71
2022/09/23 01:53:49;;;;;;;12.30;4.70;;;;;;;16.67;51.88;101142.84;6280940;22;20011;-70
2022/09/23 01:56:25;;;;;;;14.10;4.50;;;;;;;16.67;52.02;101145.63;6308362;22;20020;-71
2022/09/23 01:59:35;;;;;;;11.68;4.53;;;;;;;16.72;51.81;101147.38;6280977;22;20238;-72
2022/09/23 02:02:50;;;;;;;17.27;4.30;;;;;;;16.70;52.21;101153.28;6184189;23;20029;-64
2022/09/23 02:05:24;;;;;;;10.32;4.78;;;;;;;16.67;52.04;101153.97;6095115;23;20023;-64
2022/09/23 02:07:56;;;;;;;9.23;4.32;;;;;;;16.73;52.05;101143.47;6047966;23;20093;-65
2022/09/23 02:10:28;;;;;;;7.88;4.00;;;;;;;16.79;51.97;101144.84;6218521;22;20023;-63
2022/09/23 02:13:04;;;;;;;10.07;3.90;;;;;;;16.82;52.09;101144.19;6280724;22;20011;-63
2022/09/23 02:15:34;;;;;;;11.00;4.63;;;;;;;16.83;51.89;101140.22;6230561;22;20019;-64
2022/09/23 02:18:08;;;;;;;8.27;3.95;;;;;;;16.76;52.29;101139.97;6256599;22;20015;-63
2022/09/23 02:20:38;;;;;;;10.18;3.50;;;;;;;16.80;52.25;101141.75;6309201;22;20033;-62
2022/09/23 02:23:11;;;;;;;8.95;4.45;;;;;;;16.72;52.41;101141.81;6281951;22;20011;-63
2022/09/23 02:25:45;;;;;;;10.45;4.38;;;;;;;16.74;52.35;101137.53;6280922;22;20176;-64
2022/09/23 02:28:33;;;;;;;10.38;4.40;;;;;;;16.78;52.48;101141.28;6229726;22;20025;-63
2022/09/23 02:31:10;;;;;;;10.40;4.82;;;;;;;16.73;52.87;101133.16;6309262;22;20019;-63
2022/09/23 02:34:01;;;;;;;12.07;4.72;;;;;;;16.71;53.15;101129.91;6256714;22;20020;-63
2022/09/23 02:36:36;;;;;;;10.93;4.72;;;;;;;16.68;53.10;101138.13;6255572;22;20395;-62
2022/09/23 02:39:07;;;;;;;8.13;4.30;;;;;;;16.77;53.01;101139.63;6309135;22;20439;-62
2022/09/23 02:42:01;;;;;;;13.68;5.07;;;;;;;16.79;52.82;101137.31;6255930;22;20363;-71
2022/09/23 02:44:30;;;;;;;9.25;4.70;;;;;;;16.80;52.98;101129.78;6310865;22;20053;-70
2022/09/23 02:46:58;;;;;;;11.05;4.38;;;;;;;16.66;52.50;101127.34;6310634;22;20505;-70
2022/09/23 02:49:28;;;;;;;10.52;4.82;;;;;;;16.75;52.63;101118.88;6284070;22;20042;-71
2022/09/23 02:51:56;;;;;;;8.77;4.60;;;;;;;16.72;52.83;101122.34;6311046;22;20572;-71
2022/09/23 02:54:26;;;;;;;9.57;4.22;;;;;;;16.77;53.15;101111.03;6258129;22;20029;-73
2022/09/23 02:56:54;;;;;;;;;;;;;;;16.76;52.78;101121.31;6282821;22;20023;-71
2022/09/23 02:59:22;;;;;;;10.52;3.97;;;;;;;16.73;53.09;101118.41;6310944;22;19915;-71
2022/09/23 03:02:31;;;;;;;7.38;3.92;;;;;;;16.72;52.72;101114.81;6310455;22;20041;-71
2022/09/23 03:05:07;;;;;;;8.02;4.10;;;;;;;16.74;52.78;101118.06;6283472;22;20015;-71
2022/09/23 03:08:12;;;;;;;10.02;4.47;;;;;;;16.77;52.69;101116.59;6283642;22;20019;-72
2022/09/23 03:11:04;;;;;;;9.75;4.53;;;;;;;16.79;52.42;101114.25;6310610;22;20015;-72
2022/09/23 03:13:54;;;;;;;7.75;3.90;;;;;;;16.78;52.52;101107.88;6283813;22;20023;-71
2022/09/23 03:16:33;;;;;;;9.23;4.00;;;;;;;16.83;52.39;101115.19;6283426;22;20174;-71
2022/09/23 03:19:03;;;;;;;8.95;4.07;;;;;;;16.87;52.18;101110.56;6282857;22;20049;-70
2022/09/23 03:21:35;;;;;;;9.73;4.47;;;;;;;16.86;52.04;101106.13;6310016;22;20037;-71
2022/09/23 03:24:05;;;;;;;8.77;4.18;;;;;;;16.82;51.82;101103.22;6283187;22;20029;-71
2022/09/23 03:26:34;;;;;;;9.07;3.97;;;;;;;16.79;52.28;101115.06;6281906;22;20780;-72
2022/09/23 03:29:08;;;;;;;10.05;3.92;;;;;;;16.75;52.43;101111.34;6257578;22;20015;-73
2022/09/23 03:31:36;;;;;;;9.70;3.75;;;;;;;16.76;52.36;101109.38;6257541;22;20027;-71
2022/09/23 03:34:09;;;;;;;7.93;3.53;;;;;;;16.75;52.42;101105.78;6257759;22;20019;-72
2022/09/23 03:36:52;;;;;;;7.53;3.83;;;;;;;16.75;52.82;101110.53;6283341;22;20019;-71
2022/09/23 03:39:39;;;;;;;9.18;3.70;;;;;;;16.79;52.41;101111.47;6285540;22;20015;-71
2022/09/23 03:42:23;;;;;;;7.20;3.63;;;;;;;16.79;52.50;101115.06;6310281;22;20486;-72
2022/09/23 03:44:56;;;;;;;8.27;3.58;;;;;;;16.82;52.35;101117.13;6283556;22;20165;-71
2022/09/23 03:47:27;;;;;;;12.10;3.55;;;;;;;16.80;52.32;101118.66;6310221;22;20023;-71
2022/09/23 03:49:55;;;;;;;9.95;3.53;;;;;;;16.68;52.39;101115.84;6309881;22;20019;-71
2022/09/23 03:52:24;;;;;;;6.88;3.53;;;;;;;16.70;52.85;101121.91;6310693;22;20019;-71
2022/09/23 03:55:06;;;;;;;9.07;3.78;;;;;;;16.63;52.79;101118.88;6310383;22;20015;-72
2022/09/23 03:57:33;;;;;;;8.73;3.55;;;;;;;16.68;52.93;101121.41;6310270;22;20015;-71
2022/09/23 04:00:00;;;;;;;11.32;3.78;;;;;;;16.72;52.73;101111.22;6310497;22;20012;-71
2022/09/23 04:02:38;;;;;;;9.85;3.65;;;;;;;16.61;52.72;101124.78;6309227;22;20041;-72
2022/09/23 04:05:09;;;;;;;6.72;3.63;;;;;;;16.52;52.96;101121.28;6310111;22;20015;-71
2022/09/23 04:07:36;;;;;;;10.25;3.40;;;;;;;16.55;53.22;101120.56;6282748;22;20129;-71
2022/09/23 04:10:05;;;;;;;8.55;3.58;;;;;;;16.56;53.19;101124.97;6309977;22;20015;-72
2022/09/23 04:12:32;;;;;;;10.25;3.75;;;;;;;16.57;53.37;101125.78;6282701;22;20015;-71
2022/09/23 04:15:00;;;;;;;9.70;3.50;;;;;;;16.65;53.30;101124.88;6282997;22;20472;-71
2022/09/23 04:17:27;;;;;;;9.73;4.00;;;;;;;16.63;53.35;101124.44;6309971;22;20023;-71
2022/09/23 04:19:55;;;;;;;9.68;3.60;;;;;;;16.55;53.52;101116.97;6283050;22;20019;-73
2022/09/23 04:22:22;;;;;;;6.15;3.50;;;;;;;16.55;53.24;101116.97;6309666;22;20023;-72
2022/09/23 04:24:50;;;;;;;7.30;3.65;;;;;;;16.51;53.47;101119.63;6282815;22;20019;-72
2022/09/23 04:27:17;;;;;;;9.55;4.05;;;;;;;16.48;53.48;101114.75;6255579;22;20019;-71
2022/09/23 04:29:44;;;;;;;7.57;3.22;;;;;;;16.56;53.49;101113.84;6309981;22;20011;-70
2022/09/23 04:32:11;;;;;;;9.13;3.38;;;;;;;16.59;52.97;101118.75;6310042;22;20015;-73
2022/09/23 04:34:39;;;;;;;9.10;3.40;;;;;;;16.60;53.00;101116.75;6281390;22;20447;-71
2022/09/23 04:37:06;;;;;;;10.32;3.45;;;;;;;16.55;52.79;101112.22;6282648;22;20024;-71
2022/09/23 04:39:33;;;;;;;7.47;3.38;;;;;;;16.62;52.75;101111.66;6255180;22;20019;-71
2022/09/23 04:42:00;;;;;;;7.35;3.53;;;;;;;16.59;52.64;101110.41;6281167;22;20019;-72
2022/09/23 04:44:28;;;;;;;8.18;3.67;;;;;;;16.58;52.23;101108.75;6282186;22;20011;-72
2022/09/23 04:46:55;;;;;;;7.95;3.45;;;;;;;16.64;52.69;101114.91;6282071;22;20023;-72
2022/09/23 04:49:23;;;;;;;13.23;3.83;;;;;;;16.64;52.69;101104.63;6309654;22;20043;-72
2022/09/23 04:51:50;;;;;;;10.68;3.55;;;;;;;16.66;52.67;101107.88;6255590;22;20023;-71
2022/09/23 04:54:17;;;;;;;8.02;3.55;;;;;;;16.63;52.65;101102.97;6309832;22;20022;-71
2022/09/23 04:56:45;;;;;;;9.27;4.20;;;;;;;16.61;52.71;101108.09;6282294;22;20030;-72
2022/09/23 04:59:12;;;;;;;10.50;4.00;;;;;;;16.58;52.63;101111.53;6309825;22;20026;-71
2022/09/23 05:01:40;;;;;;;9.82;3.63;;;;;;;16.58;52.61;101100.41;6309308;22;20011;-72
2022/09/23 05:04:09;;;;;;;13.27;3.90;;;;;;;16.63;52.12;101105.75;6282531;22;20013;-74
2022/09/23 05:06:37;;;;;;;10.63;3.90;;;;;;;16.55;52.19;101098.31;6281613;22;20021;-71
2022/09/23 05:09:06;;;;;;;7.32;3.30;;;;;;;16.54;52.78;101098.69;6308227;22;20027;-71
2022/09/23 05:11:34;;;;;;;8.68;3.70;;;;;;;16.53;52.15;101095.06;6280193;22;20023;-71
2022/09/23 05:14:01;;;;;;;10.88;3.40;;;;;;;16.36;52.70;101089.66;6280937;22;20022;-71
2022/09/23 05:16:28;;;;;;;10.02;4.13;;;;;;;16.39;52.83;101093.72;6282321;22;20011;-71
2022/09/23 05:18:56;;;;;;;10.80;3.83;;;;;;;16.47;52.98;101090.09;6309677;22;20107;-72
2022/09/23 05:21:27;;;;;;;8.80;3.40;;;;;;;16.51;52.94;101089.03;6280965;22;20026;-71
2022/09/23 05:23:57;;;;;;;9.30;3.95;;;;;;;16.53;52.81;101091.47;6308824;22;20015;-72
2022/09/23 05:26:27;;;;;;;6.65;3.40;;;;;;;16.51;52.86;101088.25;6308763;22;20021;-72
2022/09/23 05:28:55;;;;;;;16.45;3.60;;;;;;;16.47;52.89;101073.41;6309674;22;20019;-72
2022/09/23 05:31:25;;;;;;;13.00;3.88;;;;;;;16.39;53.21;101083.41;6266176;22;20023;-72
2022/09/23 05:33:56;;;;;;;25.27;18.33;;;;;;;16.42;52.87;101088.28;6282392;22;20007;-71
2022/09/23 05:36:24;;;;;;;43.67;25.40;;;;;;;16.49;52.98;101101.69;6309252;22;20025;-72
2022/09/23 05:38:52;;;;;;;15.73;7.72;;;;;;;16.45;53.13;101090.41;6281637;22;20019;-72
2022/09/23 05:41:24;;;;;;;11.65;4.25;;;;;;;16.48;53.08;101100.03;6250933;22;20019;-72
2022/09/23 05:43:56;;;;;;;11.23;4.97;;;;;;;16.36;53.08;101091.63;6251759;22;20012;-72
2022/09/23 05:47:09;;;;;;;16.30;7.22;;;;;;;16.47;52.99;101098.41;6258697;22;20019;-72
2022/09/23 05:49:40;;;;;;;14.65;4.60;;;;;;;16.45;53.05;101101.53;6251937;22;20038;-72
2022/09/23 05:52:25;;;;;;;13.85;4.35;;;;;;;16.39;53.55;101107.63;6278748;22;20020;-72
2022/09/23 05:54:52;;;;;;;12.75;4.75;;;;;;;16.24;53.65;101097.16;6278753;22;20015;-72
2022/09/23 05:57:20;;;;;;;9.38;4.32;;;;;;;16.24;53.96;101100.75;6277842;22;20008;-64
2022/09/23 05:59:47;;;;;;;14.98;4.65;;;;;;;16.27;53.71;101097.28;6251583;22;20030;-73
2022/09/23 06:02:15;;;;;;;11.63;4.65;;;;;;;16.33;53.97;101100.66;6278000;22;20030;-71
2022/09/23 06:04:42;;;;;;;11.25;4.60;;;;;;;16.31;53.88;101098.22;6278296;22;20019;-63
2022/09/23 06:07:10;;;;;;;17.23;4.90;;;;;;;16.22;54.13;101103.06;6277983;22;20026;-64
2022/09/23 06:09:38;;;;;;;13.75;4.82;;;;;;;16.31;54.01;101091.84;6250220;22;20026;-64
2022/09/23 06:12:05;;;;;;;12.93;4.50;;;;;;;16.31;53.98;101091.84;6250947;22;20019;-64
2022/09/23 06:14:33;;;;;;;9.95;4.22;;;;;;;16.21;54.61;101090.31;6278395;22;20019;-65
2022/09/23 06:17:00;;;;;;;10.80;4.13;;;;;;;16.23;54.90;101090.78;6246959;22;20508;-63
2022/09/23 06:19:28;;;;;;;20.83;4.32;;;;;;;16.35;54.69;101087.25;6252108;22;20455;-65
2022/09/23 06:21:55;;;;;;;12.18;4.70;;;;;;;16.37;55.07;101093.28;6279953;22;20395;-65
2022/09/23 06:24:31;;;;;;;18.08;6.30;;;;;;;16.29;55.13;101088.59;6251698;22;20011;-65
2022/09/23 06:26:59;;;;;;;25.17;11.55;;;;;;;16.40;54.83;101098.97;6253065;22;20107;-63
2022/09/23 06:29:29;;;;;;;16.55;6.68;;;;;;;16.34;54.88;101103.09;6279875;22;20015;-63
2022/09/23 06:31:58;;;;;;;24.48;7.30;;;;;;;16.44;54.62;101099.09;6279487;22;20380;-62
2022/09/23 06:34:26;;;;;;;17.73;6.22;;;;;;;16.50;54.02;101109.69;6252601;22;20339;-64
2022/09/23 06:36:54;;;;;;;18.02;5.22;;;;;;;16.43;54.08;101103.81;6278802;22;20015;-64
2022/09/23 06:39:21;;;;;;;22.48;5.40;;;;;;;16.46;53.94;101107.88;6226487;22;20016;-66
2022/09/23 06:41:49;;;;;;;20.60;4.82;;;;;;;16.50;53.75;101112.44;6251512;22;20019;-64
2022/09/23 06:44:17;;;;;;;27.52;9.10;;;;;;;16.62;53.87;101101.34;6251589;22;20339;-63
2022/09/23 06:46:44;;;;;;;27.67;7.47;;;;;;;16.69;53.93;101096.03;6278949;22;20024;-63
2022/09/23 06:49:22;;;;;;;25.17;8.77;;;;;;;16.72;54.12;101098.13;6252047;22;20022;-66
2022/09/23 06:51:49;;;;;;;16.58;6.07;;;;;;;16.75;55.31;101094.63;6225516;22;20451;-68
2022/09/23 06:54:17;;;;;;;16.92;5.95;;;;;;;16.80;56.12;101101.97;6226023;22;20454;-68
2022/09/23 06:56:46;;;;;;;25.02;7.50;;;;;;;16.65;54.58;101102.63;6277570;22;20019;-66
2022/09/23 06:59:15;;;;;;;17.58;6.07;;;;;;;16.66;56.63;101104.25;6200201;22;20022;-67
2022/09/23 07:01:44;;;;;;;16.53;5.70;;;;;;;16.76;56.30;101104.63;6225124;22;20024;-64
2022/09/23 07:04:11;;;;;;;23.80;5.65;;;;;;;16.74;55.83;101103.34;6278179;22;20423;-66
2022/09/23 07:06:39;;;;;;;20.48;5.32;;;;;;;16.74;55.46;101108.91;6279627;22;20020;-67
2022/09/23 07:09:07;;;;;;;14.50;5.32;;;;;;;16.64;54.45;101098.22;6252166;22;20042;-65
2022/09/23 07:11:35;;;;;;;121.32;84.53;;;;;;;16.77;55.36;101103.47;6252113;22;20019;-64
2022/09/23 07:14:02;;;;;;;69.40;26.92;;;;;;;16.73;55.14;101101.72;6251282;22;20039;-65
2022/09/23 07:16:31;;;;;;;45.88;11.65;;;;;;;16.78;54.32;101102.31;6279161;22;20011;-64
2022/09/23 07:18:59;;;;;;;31.42;6.70;;;;;;;16.72;53.49;101088.97;6251705;22;20395;-66
2022/09/23 07:21:26;;;;;;;57.95;10.30;;;;;;;16.70;54.04;101097.66;6251550;22;20041;-63
2022/09/23 07:23:56;;;;;;;40.03;8.88;;;;;;;16.63;54.47;101096.63;6251971;22;20019;-64
2022/09/23 07:26:24;;;;;;;;;;;;;;;16.70;54.42;101097.66;6279625;22;20016;-65
2022/09/23 07:28:55;;;;;;;118.72;18.05;;;;;;;16.71;53.25;101095.69;6278315;22;19921;-65
2022/09/23 07:31:23;;;;;;;32.33;6.15;;;;;;;16.75;53.59;101100.22;6227009;22;20030;-64
2022/09/23 07:34:06;;;;;;;31.70;6.47;;;;;;;16.65;53.62;101105.41;6228941;22;20016;-65
2022/09/23 07:36:36;;;;;;;29.77;7.23;;;;;;;16.65;53.80;101105.41;6278746;22;20020;-67
2022/09/23 07:39:04;;;;;;;26.02;6.82;;;;;;;16.78;53.78;101112.63;6251160;22;20238;-65
2022/09/23 07:41:32;;;;;;;33.88;6.50;;;;;;;16.74;51.96;101109.72;6277852;22;20023;-65
2022/09/23 07:44:00;;;;;;;17.58;5.07;;;;;;;16.43;53.50;101108.56;6251675;22;20466;-65
2022/09/23 07:46:30;;;;;;;35.85;6.43;;;;;;;16.60;53.43;101108.41;6225933;22;20027;-64
2022/09/23 07:48:57;;;;;;;24.30;5.60;;;;;;;16.68;53.41;101104.72;6277937;22;20024;-65
2022/09/23 07:51:28;;;;;;;18.80;5.95;;;;;;;16.47;54.16;101109.53;6251410;22;20019;-63
2022/09/23 07:54:02;;;;;;;24.98;7.25;;;;;;;16.56;53.74;101119.41;6227063;22;20019;-65
2022/09/23 07:56:29;;;;;;;27.60;6.43;;;;;;;16.60;53.23;101123.13;6249500;22;20011;-65
2022/09/23 07:58:59;;;;;;;24.83;5.85;;;;;;;16.54;53.95;101126.50;6276939;22;20019;-64
2022/09/23 08:01:28;;;;;;;;;;;;;;;16.64;53.94;101132.44;6250047;22;20027;-65
2022/09/23 08:03:57;;;;;;;20.48;5.95;;;;;;;16.77;53.48;101136.06;6278372;22;19938;-66
2022/09/23 08:06:24;;;;;;;33.95;10.27;;;;;;;16.99;53.24;101132.84;6251458;22;20035;-66
2022/09/23 08:08:51;;;;;;;30.73;11.50;;;;;;;16.88;51.96;101126.91;6226082;22;20353;-66
2022/09/23 08:11:19;;;;;;;24.63;8.48;;;;;;;17.02;52.33;101134.91;6278125;22;20045;-64
2022/09/23 08:13:47;;;;;;;25.25;5.50;;;;;;;16.75;51.78;101133.59;6249503;22;20019;-64
2022/09/23 08:16:14;;;;;;;29.52;5.90;;;;;;;16.81;52.43;101137.78;6223844;22;20016;-63
2022/09/23 08:18:45;;;;;;;23.33;5.57;;;;;;;16.59;52.68;101134.59;6250881;22;20481;-64
2022/09/23 08:21:18;;;;;;;18.23;5.50;;;;;;;16.96;53.48;101144.66;6250047;22;20463;-66
2022/09/23 08:23:46;;;;;;;21.45;6.65;;;;;;;17.15;52.63;101144.09;6277527;22;20023;-69
2022/09/23 08:26:13;;;;;;;23.92;5.82;;;;;;;17.31;52.58;101140.25;6223965;22;20574;-64
2022/09/23 08:28:47;;;;;;;20.75;5.30;;;;;;;17.44;51.38;101143.84;6278110;22;20026;-65
2022/09/23 08:31:14;;;;;;;29.60;5.60;;;;;;;17.31;51.47;101143.03;6224445;22;20019;-66
2022/09/23 08:33:42;;;;;;;29.85;5.65;;;;;;;17.50;51.09;101136.94;6247702;22;20023;-62
2022/09/23 08:36:09;;;;;;;15.13;4.88;;;;;;;17.52;50.49;101138.19;6251298;22;20016;-65
2022/09/23 08:38:37;;;;;;;20.30;5.53;;;;;;;17.74;50.89;101142.47;6275064;22;20019;-65
2022/09/23 08:41:21;;;;;;;29.08;5.20;;;;;;;17.76;50.40;101140.16;6225049;22;20027;-65
2022/09/23 08:43:52;;;;;;;16.27;5.57;;;;;;;17.75;49.74;101138.50;6251491;22;20016;-68
2022/09/23 08:46:26;;;;;;;19.63;5.68;;;;;;;17.83;49.90;101134.78;6275118;22;20471;-64
2022/09/23 08:48:54;;;;;;;20.60;5.18;;;;;;;17.96;49.77;101139.97;6249389;22;20030;-65
2022/09/23 08:51:30;;;;;;;28.52;5.15;;;;;;;18.07;49.53;101131.09;6276514;22;20016;-65
2022/09/23 08:53:58;;;;;;;19.15;5.93;;;;;;;18.07;48.71;101133.91;6200055;22;20024;-65
2022/09/23 08:56:27;;;;;;;23.83;5.40;;;;;;;17.92;49.04;101129.91;6275828;22;20019;-67
2022/09/23 08:59:18;;;;;;;29.03;5.67;;;;;;;18.45;46.80;101126.69;6223686;22;20027;-65
2022/09/23 09:01:47;;;;;;;32.75;5.30;;;;;;;18.34;47.65;101131.13;6232459;22;20115;-66
2022/09/23 09:04:35;;;;;;;21.58;5.55;;;;;;;18.25;48.46;101136.06;6223353;22;20020;-66
2022/09/23 09:07:02;;;;;;;22.92;7.82;;;;;;;18.25;48.42;101121.28;6276480;22;20015;-67
2022/09/23 09:10:15;;;;;;;21.40;6.15;;;;;;;18.36;48.64;101123.22;6276864;22;20023;-66
2022/09/23 09:12:53;;;;;;;20.30;5.80;;;;;;;18.37;48.24;101126.81;6222577;22;20432;-66
2022/09/23 09:15:22;;;;;;;19.88;5.60;;;;;;;18.42;48.08;101121.00;6248601;22;20016;-66
2022/09/23 09:18:07;;;;;;;29.85;6.80;;;;;;;18.49;48.28;101121.22;6223548;22;20463;-66
2022/09/23 09:20:48;;;;;;;17.13;5.72;;;;;;;18.49;48.12;101118.41;6223627;22;20020;-66
2022/09/23 09:23:30;;;;;;;23.00;6.43;;;;;;;18.49;48.13;101112.84;6223934;22;20023;-65
2022/09/23 09:26:00;;;;;;;25.27;5.82;;;;;;;18.47;47.78;101117.97;6250312;22;20012;-67
2022/09/23 09:28:50;;;;;;;25.10;6.00;;;;;;;18.51;47.91;101108.53;6248693;22;20023;-66
2022/09/23 09:31:41;;;;;;;27.60;6.32;;;;;;;18.59;48.19;101115.91;6250083;22;20024;-65
2022/09/23 09:34:39;;;;;;;18.80;6.20;;;;;;;18.44;47.97;101113.09;6224561;22;20030;-63
2022/09/23 09:37:14;;;;;;;32.80;6.43;;;;;;;18.47;47.37;101106.81;6276236;22;20451;-62
2022/09/23 09:39:42;;;;;;;26.73;6.35;;;;;;;18.51;47.66;101104.94;6225158;22;20028;-65
2022/09/23 09:42:19;;;;;;;34.08;5.70;;;;;;;18.53;47.52;101106.19;6276395;22;20031;-62
2022/09/23 09:44:57;;;;;;;27.42;5.60;;;;;;;18.59;48.14;101115.09;6247988;22;20019;-63
2022/09/23 09:47:33;;;;;;;21.35;5.43;;;;;;;18.64;47.97;101114.84;6221985;22;20720;-63
2022/09/23 09:50:20;;;;;;;21.85;5.47;;;;;;;18.76;47.88;101114.75;6276829;22;20012;-63
2022/09/23 09:52:47;;;;;;;29.17;6.10;;;;;;;18.93;47.20;101106.84;6251407;22;20032;-62
2022/09/23 09:55:24;;;;;;;29.35;6.47;;;;;;;18.99;46.81;101105.41;6249169;22;20020;-63
2022/09/23 09:58:00;;;;;;;23.70;6.57;;;;;;;19.00;47.04;101111.81;6277333;22;20020;-63
2022/09/23 10:00:28;;;;;;;36.25;6.28;;;;;;;19.06;46.63;101111.19;6276210;22;20505;-62
2022/09/23 10:03:00;;;;;;;27.73;5.95;;;;;;;19.17;47.30;101111.44;6275752;22;20024;-63
2022/09/23 10:05:33;;;;;;;29.60;5.35;;;;;;;19.19;46.92;101099.91;6224206;22;20026;-63
2022/09/23 10:08:19;;;;;;;22.10;5.22;;;;;;;19.25;46.57;101095.69;6275971;22;20031;-63
2022/09/23 10:11:14;;;;;;;44.30;6.60;;;;;;;19.42;45.98;101090.53;6276366;22;20018;-63
2022/09/23 10:14:00;;;;;;;21.67;5.20;;;;;;;19.59;44.73;101097.72;6249846;22;20016;-64
2022/09/23 10:16:32;;;;;;;12.40;4.90;;;;;;;19.37;44.54;101093.59;6248607;22;20455;-64
2022/09/23 10:19:15;;;;;;;24.15;4.90;;;;;;;19.43;44.67;101097.75;6222516;22;20020;-62
2022/09/23 10:21:42;;;;;;;15.75;4.63;;;;;;;19.56;44.53;101090.06;6247158;22;20030;-63
2022/09/23 10:24:22;;;;;;;15.65;4.22;;;;;;;19.63;44.39;101088.22;6223350;22;20044;-63
2022/09/23 10:26:57;;;;;;;19.27;4.43;;;;;;;19.35;45.45;101086.78;6274764;22;20011;-63
2022/09/23 10:29:29;;;;;;;24.40;6.13;;;;;;;19.43;44.40;101080.97;6224015;22;20035;-64
2022/09/23 10:32:17;;;;;;;20.35;6.30;;;;;;;19.39;44.14;101080.09;6248574;22;20020;-63
2022/09/23 10:34:48;;;;;;;14.35;4.97;;;;;;;19.44;44.13;101073.44;6276220;22;20115;-64
2022/09/23 10:37:29;;;;;;;17.40;5.78;;;;;;;19.55;45.25;101075.28;6248157;22;20012;-63
2022/09/23 10:48:47;;;;;;;15.25;5.72;;;;;;;19.74;43.12;101074.47;6276630;22;20016;-63
2022/09/23 10:51:26;;;;;;;17.67;5.15;;;;;;;19.86;43.88;101068.75;6250111;22;20455;-63
2022/09/23 10:54:08;;;;;;;18.92;4.40;;;;;;;19.98;42.64;101066.63;6277413;22;20050;-63
2022/09/23 10:56:42;;;;;;;11.07;4.03;;;;;;;20.06;44.38;101060.00;6277274;22;20015;-63
2022/09/23 10:59:42;;;;;;;18.52;5.78;;;;;;;20.23;42.67;101060.75;6277181;22;20022;-64
2022/09/23 11:02:52;;;;;;;15.85;4.43;;;;;;;20.51;40.78;101056.50;6232440;22;20020;-63
2022/09/23 11:05:25;;;;;;;;;;;;;;;20.37;41.79;101047.03;6278510;22;20042;-62
2022/09/23 11:08:05;;;;;;;14.02;4.40;;;;;;;20.23;42.00;101041.16;6278679;22;20266;-63
2022/09/23 11:10:47;;;;;;;18.27;4.50;;;;;;;19.80;41.71;101050.66;6250961;22;20022;-63
2022/09/23 11:13:41;;;;;;;17.70;5.78;;;;;;;19.98;42.29;101046.22;6225642;22;20031;-63
2022/09/23 11:17:03;;;;;;;16.27;5.97;;;;;;;20.04;40.99;101045.59;6255425;22;20016;-63
2022/09/23 11:19:56;;;;;;;14.43;4.20;;;;;;;20.13;40.88;101037.78;6184304;23;20021;-64
2022/09/23 11:22:23;;;;;;;9.98;4.50;;;;;;;20.13;40.58;101037.78;6183862;23;20025;-63
2022/09/23 11:25:04;;;;;;;13.45;4.65;;;;;;;20.16;41.07;101039.03;6247877;22;20031;-64
2022/09/23 11:27:53;;;;;;;17.10;5.72;;;;;;;20.28;40.68;101035.25;6250579;22;20012;-62
2022/09/23 11:30:20;;;;;;;15.20;4.90;;;;;;;20.40;41.21;101032.31;6250594;22;20477;-63
2022/09/23 11:33:12;;;;;;;14.30;4.28;;;;;;;20.50;40.14;101037.28;6201290;22;20016;-64
2022/09/23 11:36:20;;;;;;;15.23;4.32;;;;;;;20.51;40.21;101038.91;6252647;22;20012;-63
2022/09/23 11:38:48;;;;;;;24.58;6.07;;;;;;;20.60;39.60;101037.47;6232354;22;20463;-64
2022/09/23 11:41:18;;;;;;;27.20;4.28;;;;;;;20.52;39.12;101027.31;6224154;22;20042;-63
2022/09/23 11:43:51;;;;;;;16.30;3.95;;;;;;;20.55;39.30;101015.41;6251187;22;20023;-63
2022/09/23 11:46:24;;;;;;;18.85;4.55;;;;;;;20.52;40.40;101016.13;6251146;22;20455;-64
2022/09/23 11:49:07;;;;;;;22.23;4.72;;;;;;;20.58;39.34;101020.25;6278356;22;20049;-62
2022/09/23 11:51:44;;;;;;;13.65;4.18;;;;;;;20.57;39.55;101012.22;6250240;22;20026;-63
2022/09/23 11:54:35;;;;;;;29.15;7.40;;;;;;;20.77;40.36;101016.56;6225722;22;20478;-64
2022/09/23 11:57:05;;;;;;;34.88;6.93;;;;;;;20.94;39.41;101007.63;6277994;22;20026;-64
2022/09/23 11:59:48;;;;;;;35.30;6.60;;;;;;;21.12;38.32;101008.75;6249787;22;20388;-64